Panguitch, Utah
Current Conditions -  °F | °C
As of 2:53 PM on Tuesday 25 Nov 2014 (Local Time) from KBCE Reporting Station
Clear Clear  
Wind Chill: 38°   Ceiling: Unl
Heat Index: 45°   Visibility: 10mi
Dew Point: 21°   Wind: 16mph
Humidity: 39%   Direction: 320°NW
Pressure: 30.37"   Gusts: 26mph
Location:  37.82°N, 112.44°W
Report Text: KBCE 252153Z AUTO 32014G23KT 10SM CLR 07/M06 A3037 RMK AO2 SLP275 T00721061
Loading
Personal Weather Stations






























Interactive Weather Map New forecast layout! Learn more

10-Day Weather Forecast

Advertisements
Track Severe Weather on mobile